sensor_id;sensor_type;location;lat;lon;timestamp;P1;durP1;ratioP1;P2;durP2;ratioP2
77814;SDS011;67002;52.124;21.210;2023-10-09T00:00:07;0.10;;;0.10;;
77814;SDS011;67002;52.124;21.210;2023-10-09T00:03:13;0.10;;;0.10;;
77814;SDS011;67002;52.124;21.210;2023-10-09T00:05:42;0.30;;;0.30;;
77814;SDS011;67002;52.124;21.210;2023-10-09T00:08:13;0.10;;;0.10;;
77814;SDS011;67002;52.124;21.210;2023-10-09T00:10:45;0.10;;;0.10;;
77814;SDS011;67002;52.124;21.210;2023-10-09T00:13:19;0.10;;;0.10;;
77814;SDS011;67002;52.124;21.210;2023-10-09T00:15:54;0.20;;;0.20;;
77814;SDS011;67002;52.124;21.210;2023-10-09T00:18:28;0.10;;;0.10;;
77814;SDS011;67002;52.124;21.210;2023-10-09T00:20:57;0.10;;;0.10;;
77814;SDS011;67002;52.124;21.210;2023-10-09T00:23:38;0.00;;;0.00;;
77814;SDS011;67002;52.124;21.210;2023-10-09T00:28:38;0.10;;;0.10;;
77814;SDS011;67002;52.124;21.210;2023-10-09T00:31:10;0.00;;;0.00;;
77814;SDS011;67002;52.124;21.210;2023-10-09T00:33:43;0.00;;;0.00;;
77814;SDS011;67002;52.124;21.210;2023-10-09T00:36:11;0.20;;;0.20;;
77814;SDS011;67002;52.124;21.210;2023-10-09T00:38:46;0.10;;;0.10;;
77814;SDS011;67002;52.124;21.210;2023-10-09T00:41:17;0.20;;;0.20;;
77814;SDS011;67002;52.124;21.210;2023-10-09T00:43:51;0.10;;;0.10;;
77814;SDS011;67002;52.124;21.210;2023-10-09T00:46:20;0.10;;;0.10;;
77814;SDS011;67002;52.124;21.210;2023-10-09T00:48:53;0.10;;;0.10;;
77814;SDS011;67002;52.124;21.210;2023-10-09T00:51:24;0.10;;;0.10;;
77814;SDS011;67002;52.124;21.210;2023-10-09T00:53:55;0.40;;;0.40;;
77814;SDS011;67002;52.124;21.210;2023-10-09T00:56:25;0.30;;;0.30;;
77814;SDS011;67002;52.124;21.210;2023-10-09T00:59:05;0.20;;;0.20;;
77814;SDS011;67002;52.124;21.210;2023-10-09T01:01:36;0.30;;;0.30;;
77814;SDS011;67002;52.124;21.210;2023-10-09T01:04:07;0.40;;;0.40;;
77814;SDS011;67002;52.124;21.210;2023-10-09T01:06:37;0.40;;;0.40;;
77814;SDS011;67002;52.124;21.210;2023-10-09T01:09:12;0.30;;;0.30;;
77814;SDS011;67002;52.124;21.210;2023-10-09T01:11:42;0.40;;;0.40;;
77814;SDS011;67002;52.124;21.210;2023-10-09T01:14:30;0.40;;;0.40;;
77814;SDS011;67002;52.124;21.210;2023-10-09T01:17:03;0.50;;;0.50;;
77814;SDS011;67002;52.124;21.210;2023-10-09T01:19:36;0.40;;;0.40;;
77814;SDS011;67002;52.124;21.210;2023-10-09T01:22:04;0.40;;;0.40;;
77814;SDS011;67002;52.124;21.210;2023-10-09T01:24:39;0.90;;;0.90;;
77814;SDS011;67002;52.124;21.210;2023-10-09T01:27:08;0.50;;;0.50;;
77814;SDS011;67002;52.124;21.210;2023-10-09T01:29:41;0.50;;;0.50;;
77814;SDS011;67002;52.124;21.210;2023-10-09T01:32:10;0.70;;;0.70;;
77814;SDS011;67002;52.124;21.210;2023-10-09T01:34:43;0.60;;;0.60;;
77814;SDS011;67002;52.124;21.210;2023-10-09T01:37:16;0.30;;;0.30;;
77814;SDS011;67002;52.124;21.210;2023-10-09T01:39:46;0.70;;;0.70;;
77814;SDS011;67002;52.124;21.210;2023-10-09T01:42:15;0.60;;;0.60;;
77814;SDS011;67002;52.124;21.210;2023-10-09T01:44:51;0.60;;;0.60;;
77814;SDS011;67002;52.124;21.210;2023-10-09T01:47:20;0.60;;;0.60;;
77814;SDS011;67002;52.124;21.210;2023-10-09T01:52:16;0.60;;;0.60;;
77814;SDS011;67002;52.124;21.210;2023-10-09T01:54:45;0.60;;;0.60;;
77814;SDS011;67002;52.124;21.210;2023-10-09T01:57:16;0.70;;;0.70;;
77814;SDS011;67002;52.124;21.210;2023-10-09T01:59:49;0.90;;;0.90;;
77814;SDS011;67002;52.124;21.210;2023-10-09T02:02:20;0.60;;;0.60;;
77814;SDS011;67002;52.124;21.210;2023-10-09T02:04:53;0.60;;;0.60;;
77814;SDS011;67002;52.124;21.210;2023-10-09T02:07:33;0.80;;;0.80;;
77814;SDS011;67002;52.124;21.210;2023-10-09T02:10:08;0.80;;;0.80;;
77814;SDS011;67002;52.124;21.210;2023-10-09T02:12:48;0.60;;;0.60;;
77814;SDS011;67002;52.124;21.210;2023-10-09T02:15:21;0.70;;;0.70;;
77814;SDS011;67002;52.124;21.210;2023-10-09T02:18:12;0.60;;;0.60;;
77814;SDS011;67002;52.124;21.210;2023-10-09T02:20:45;0.80;;;0.80;;
77814;SDS011;67002;52.124;21.210;2023-10-09T02:23:14;0.40;;;0.40;;
77814;SDS011;67002;52.124;21.210;2023-10-09T02:25:44;0.60;;;0.60;;
77814;SDS011;67002;52.124;21.210;2023-10-09T02:28:12;0.80;;;0.80;;
77814;SDS011;67002;52.124;21.210;2023-10-09T02:30:45;0.60;;;0.60;;
77814;SDS011;67002;52.124;21.210;2023-10-09T02:33:14;0.60;;;0.60;;
77814;SDS011;67002;52.124;21.210;2023-10-09T02:35:54;0.60;;;0.60;;
77814;SDS011;67002;52.124;21.210;2023-10-09T02:38:26;0.80;;;0.80;;
77814;SDS011;67002;52.124;21.210;2023-10-09T02:40:58;0.70;;;0.70;;
77814;SDS011;67002;52.124;21.210;2023-10-09T02:43:47;0.70;;;0.70;;
77814;SDS011;67002;52.124;21.210;2023-10-09T02:46:17;0.60;;;0.60;;
77814;SDS011;67002;52.124;21.210;2023-10-09T02:48:47;0.60;;;0.60;;
77814;SDS011;67002;52.124;21.210;2023-10-09T02:51:18;0.60;;;0.60;;
77814;SDS011;67002;52.124;21.210;2023-10-09T02:54:00;0.50;;;0.50;;
77814;SDS011;67002;52.124;21.210;2023-10-09T02:56:44;0.60;;;0.60;;
77814;SDS011;67002;52.124;21.210;2023-10-09T02:59:21;0.70;;;0.70;;
77814;SDS011;67002;52.124;21.210;2023-10-09T03:01:50;0.40;;;0.40;;
77814;SDS011;67002;52.124;21.210;2023-10-09T03:04:19;0.80;;;0.80;;
77814;SDS011;67002;52.124;21.210;2023-10-09T03:06:50;0.60;;;0.60;;
77814;SDS011;67002;52.124;21.210;2023-10-09T03:09:20;0.70;;;0.70;;
77814;SDS011;67002;52.124;21.210;2023-10-09T03:11:54;0.90;;;0.90;;
77814;SDS011;67002;52.124;21.210;2023-10-09T03:14:30;0.80;;;0.80;;
77814;SDS011;67002;52.124;21.210;2023-10-09T03:16:58;1.00;;;1.00;;
77814;SDS011;67002;52.124;21.210;2023-10-09T03:21:55;0.80;;;0.80;;
77814;SDS011;67002;52.124;21.210;2023-10-09T03:24:24;0.70;;;0.70;;
77814;SDS011;67002;52.124;21.210;2023-10-09T03:26:54;0.70;;;0.70;;
77814;SDS011;67002;52.124;21.210;2023-10-09T03:29:23;0.70;;;0.70;;
77814;SDS011;67002;52.124;21.210;2023-10-09T03:31:51;0.80;;;0.80;;
77814;SDS011;67002;52.124;21.210;2023-10-09T03:34:20;0.70;;;0.70;;
77814;SDS011;67002;52.124;21.210;2023-10-09T03:39:18;0.70;;;0.70;;
77814;SDS011;67002;52.124;21.210;2023-10-09T03:41:52;0.70;;;0.70;;
77814;SDS011;67002;52.124;21.210;2023-10-09T03:44:21;0.60;;;0.60;;
77814;SDS011;67002;52.124;21.210;2023-10-09T03:46:49;0.60;;;0.60;;
77814;SDS011;67002;52.124;21.210;2023-10-09T03:49:18;0.90;;;0.90;;
77814;SDS011;67002;52.124;21.210;2023-10-09T03:51:53;0.60;;;0.60;;
77814;SDS011;67002;52.124;21.210;2023-10-09T03:54:22;0.60;;;0.60;;
77814;SDS011;67002;52.124;21.210;2023-10-09T03:56:51;0.80;;;0.80;;
77814;SDS011;67002;52.124;21.210;2023-10-09T03:59:21;0.70;;;0.70;;
77814;SDS011;67002;52.124;21.210;2023-10-09T04:01:49;0.70;;;0.70;;
77814;SDS011;67002;52.124;21.210;2023-10-09T04:04:20;0.80;;;0.80;;
77814;SDS011;67002;52.124;21.210;2023-10-09T04:06:50;0.70;;;0.70;;
77814;SDS011;67002;52.124;21.210;2023-10-09T04:09:18;0.60;;;0.60;;
77814;SDS011;67002;52.124;21.210;2023-10-09T04:12:03;0.70;;;0.70;;
77814;SDS011;67002;52.124;21.210;2023-10-09T04:14:48;0.70;;;0.70;;
77814;SDS011;67002;52.124;21.210;2023-10-09T04:17:21;0.60;;;0.60;;
77814;SDS011;67002;52.124;21.210;2023-10-09T04:20:04;0.60;;;0.60;;
77814;SDS011;67002;52.124;21.210;2023-10-09T04:22:52;0.60;;;0.60;;
77814;SDS011;67002;52.124;21.210;2023-10-09T04:25:27;0.60;;;0.60;;
77814;SDS011;67002;52.124;21.210;2023-10-09T04:27:56;0.70;;;0.70;;
77814;SDS011;67002;52.124;21.210;2023-10-09T04:30:36;0.80;;;0.80;;
77814;SDS011;67002;52.124;21.210;2023-10-09T04:33:07;0.70;;;0.70;;
77814;SDS011;67002;52.124;21.210;2023-10-09T04:35:54;0.70;;;0.70;;
77814;SDS011;67002;52.124;21.210;2023-10-09T04:38:43;0.60;;;0.60;;
77814;SDS011;67002;52.124;21.210;2023-10-09T04:41:22;0.70;;;0.70;;
77814;SDS011;67002;52.124;21.210;2023-10-09T04:44:00;0.90;;;0.90;;
77814;SDS011;67002;52.124;21.210;2023-10-09T04:46:45;0.80;;;0.80;;
77814;SDS011;67002;52.124;21.210;2023-10-09T04:49:45;0.80;;;0.80;;
77814;SDS011;67002;52.124;21.210;2023-10-09T04:52:28;0.70;;;0.70;;
77814;SDS011;67002;52.124;21.210;2023-10-09T04:55:15;0.90;;;0.90;;
77814;SDS011;67002;52.124;21.210;2023-10-09T04:57:46;0.70;;;0.70;;
77814;SDS011;67002;52.124;21.210;2023-10-09T05:00:29;0.80;;;0.80;;
77814;SDS011;67002;52.124;21.210;2023-10-09T05:03:29;0.80;;;0.80;;
77814;SDS011;67002;52.124;21.210;2023-10-09T05:06:12;1.10;;;1.10;;
77814;SDS011;67002;52.124;21.210;2023-10-09T05:08:59;0.90;;;0.90;;
77814;SDS011;67002;52.124;21.210;2023-10-09T05:11:35;0.80;;;0.80;;
77814;SDS011;67002;52.124;21.210;2023-10-09T05:14:18;0.70;;;0.70;;
77814;SDS011;67002;52.124;21.210;2023-10-09T05:16:54;0.80;;;0.80;;
77814;SDS011;67002;52.124;21.210;2023-10-09T05:19:22;0.80;;;0.80;;
77814;SDS011;67002;52.124;21.210;2023-10-09T05:22:00;0.80;;;0.80;;
77814;SDS011;67002;52.124;21.210;2023-10-09T05:24:36;0.70;;;0.70;;
77814;SDS011;67002;52.124;21.210;2023-10-09T05:27:14;0.70;;;0.70;;
77814;SDS011;67002;52.124;21.210;2023-10-09T05:29:46;0.70;;;0.70;;
77814;SDS011;67002;52.124;21.210;2023-10-09T05:32:26;1.00;;;1.00;;
77814;SDS011;67002;52.124;21.210;2023-10-09T05:35:01;0.60;;;0.60;;
77814;SDS011;67002;52.124;21.210;2023-10-09T05:37:42;0.70;;;0.70;;
77814;SDS011;67002;52.124;21.210;2023-10-09T05:42:50;0.50;;;0.50;;
77814;SDS011;67002;52.124;21.210;2023-10-09T05:45:29;0.90;;;0.90;;
77814;SDS011;67002;52.124;21.210;2023-10-09T05:48:13;0.90;;;0.90;;
77814;SDS011;67002;52.124;21.210;2023-10-09T05:51:02;0.80;;;0.80;;
77814;SDS011;67002;52.124;21.210;2023-10-09T05:54:06;0.70;;;0.70;;
77814;SDS011;67002;52.124;21.210;2023-10-09T05:56:53;0.90;;;0.90;;
77814;SDS011;67002;52.124;21.210;2023-10-09T05:59:42;0.60;;;0.60;;
77814;SDS011;67002;52.124;21.210;2023-10-09T06:02:38;0.70;;;0.70;;
77814;SDS011;67002;52.124;21.210;2023-10-09T06:05:29;0.70;;;0.70;;
77814;SDS011;67002;52.124;21.210;2023-10-09T06:08:18;0.80;;;0.80;;
77814;SDS011;67002;52.124;21.210;2023-10-09T06:10:52;0.60;;;0.60;;
77814;SDS011;67002;52.124;21.210;2023-10-09T06:13:42;0.70;;;0.70;;
77814;SDS011;67002;52.124;21.210;2023-10-09T06:16:13;0.60;;;0.60;;
77814;SDS011;67002;52.124;21.210;2023-10-09T06:18:58;0.90;;;0.90;;
77814;SDS011;67002;52.124;21.210;2023-10-09T06:21:38;0.80;;;0.80;;
77814;SDS011;67002;52.124;21.210;2023-10-09T06:24:27;0.70;;;0.70;;
77814;SDS011;67002;52.124;21.210;2023-10-09T06:27:08;0.60;;;0.60;;
77814;SDS011;67002;52.124;21.210;2023-10-09T06:29:41;0.60;;;0.60;;
77814;SDS011;67002;52.124;21.210;2023-10-09T06:32:39;0.60;;;0.60;;
77814;SDS011;67002;52.124;21.210;2023-10-09T06:35:17;0.70;;;0.70;;
77814;SDS011;67002;52.124;21.210;2023-10-09T06:37:49;0.80;;;0.80;;
77814;SDS011;67002;52.124;21.210;2023-10-09T06:40:46;0.80;;;0.80;;
77814;SDS011;67002;52.124;21.210;2023-10-09T06:43:33;0.70;;;0.70;;
77814;SDS011;67002;52.124;21.210;2023-10-09T06:46:14;0.80;;;0.80;;
77814;SDS011;67002;52.124;21.210;2023-10-09T06:49:10;0.60;;;0.60;;
77814;SDS011;67002;52.124;21.210;2023-10-09T06:52:00;0.60;;;0.60;;
77814;SDS011;67002;52.124;21.210;2023-10-09T06:54:42;0.50;;;0.50;;
77814;SDS011;67002;52.124;21.210;2023-10-09T06:57:17;0.70;;;0.70;;
77814;SDS011;67002;52.124;21.210;2023-10-09T07:00:00;0.80;;;0.80;;
77814;SDS011;67002;52.124;21.210;2023-10-09T07:05:15;0.70;;;0.70;;
77814;SDS011;67002;52.124;21.210;2023-10-09T07:07:44;0.60;;;0.60;;
77814;SDS011;67002;52.124;21.210;2023-10-09T07:10:22;0.90;;;0.90;;
77814;SDS011;67002;52.124;21.210;2023-10-09T07:12:56;0.60;;;0.60;;
77814;SDS011;67002;52.124;21.210;2023-10-09T07:18:10;0.60;;;0.60;;
77814;SDS011;67002;52.124;21.210;2023-10-09T07:20:50;0.40;;;0.40;;
77814;SDS011;67002;52.124;21.210;2023-10-09T07:23:26;0.40;;;0.40;;
77814;SDS011;67002;52.124;21.210;2023-10-09T07:26:03;0.60;;;0.60;;
77814;SDS011;67002;52.124;21.210;2023-10-09T07:28:50;0.60;;;0.60;;
77814;SDS011;67002;52.124;21.210;2023-10-09T07:31:27;0.50;;;0.50;;
77814;SDS011;67002;52.124;21.210;2023-10-09T07:34:06;0.50;;;0.50;;
77814;SDS011;67002;52.124;21.210;2023-10-09T07:36:49;0.60;;;0.60;;
77814;SDS011;67002;52.124;21.210;2023-10-09T07:39:23;0.30;;;0.30;;
77814;SDS011;67002;52.124;21.210;2023-10-09T07:42:01;0.40;;;0.40;;
77814;SDS011;67002;52.124;21.210;2023-10-09T07:44:46;0.30;;;0.30;;
77814;SDS011;67002;52.124;21.210;2023-10-09T07:47:19;0.40;;;0.40;;
77814;SDS011;67002;52.124;21.210;2023-10-09T07:49:55;0.40;;;0.40;;
77814;SDS011;67002;52.124;21.210;2023-10-09T07:52:26;0.40;;;0.40;;
77814;SDS011;67002;52.124;21.210;2023-10-09T07:54:55;0.40;;;0.40;;
77814;SDS011;67002;52.124;21.210;2023-10-09T07:57:30;0.30;;;0.30;;
77814;SDS011;67002;52.124;21.210;2023-10-09T08:00:06;0.30;;;0.30;;
77814;SDS011;67002;52.124;21.210;2023-10-09T08:02:59;0.50;;;0.50;;
77814;SDS011;67002;52.124;21.210;2023-10-09T08:05:29;0.30;;;0.30;;
77814;SDS011;67002;52.124;21.210;2023-10-09T08:08:01;0.40;;;0.40;;
77814;SDS011;67002;52.124;21.210;2023-10-09T08:11:07;0.40;;;0.40;;
77814;SDS011;67002;52.124;21.210;2023-10-09T08:14:05;0.20;;;0.20;;
77814;SDS011;67002;52.124;21.210;2023-10-09T08:16:48;0.10;;;0.10;;
77814;SDS011;67002;52.124;21.210;2023-10-09T08:19:18;0.20;;;0.20;;
77814;SDS011;67002;52.124;21.210;2023-10-09T08:21:59;0.20;;;0.20;;
77814;SDS011;67002;52.124;21.210;2023-10-09T08:25:00;0.30;;;0.30;;
77814;SDS011;67002;52.124;21.210;2023-10-09T08:27:30;0.20;;;0.20;;
77814;SDS011;67002;52.124;21.210;2023-10-09T08:30:21;0.10;;;0.10;;
77814;SDS011;67002;52.124;21.210;2023-10-09T08:32:56;0.30;;;0.30;;
77814;SDS011;67002;52.124;21.210;2023-10-09T08:35:34;0.20;;;0.20;;
77814;SDS011;67002;52.124;21.210;2023-10-09T08:38:14;0.20;;;0.20;;
77814;SDS011;67002;52.124;21.210;2023-10-09T08:40:50;0.20;;;0.20;;
77814;SDS011;67002;52.124;21.210;2023-10-09T08:43:21;0.00;;;0.00;;
77814;SDS011;67002;52.124;21.210;2023-10-09T08:45:51;0.20;;;0.20;;
77814;SDS011;67002;52.124;21.210;2023-10-09T08:48:21;0.30;;;0.30;;
77814;SDS011;67002;52.124;21.210;2023-10-09T08:53:16;0.10;;;0.10;;
77814;SDS011;67002;52.124;21.210;2023-10-09T08:55:44;0.10;;;0.10;;
77814;SDS011;67002;52.124;21.210;2023-10-09T08:58:14;0.10;;;0.10;;
77814;SDS011;67002;52.124;21.210;2023-10-09T09:00:47;0.00;;;0.00;;
77814;SDS011;67002;52.124;21.210;2023-10-09T09:03:16;0.00;;;0.00;;
77814;SDS011;67002;52.124;21.210;2023-10-09T09:05:47;0.10;;;0.10;;
77814;SDS011;67002;52.124;21.210;2023-10-09T09:08:24;0.10;;;0.10;;
77814;SDS011;67002;52.124;21.210;2023-10-09T09:10:58;0.00;;;0.00;;
77814;SDS011;67002;52.124;21.210;2023-10-09T09:13:38;0.10;;;0.10;;
77814;SDS011;67002;52.124;21.210;2023-10-09T09:16:17;0.10;;;0.10;;
77814;SDS011;67002;52.124;21.210;2023-10-09T09:18:50;0.10;;;0.10;;
77814;SDS011;67002;52.124;21.210;2023-10-09T09:21:23;0.10;;;0.10;;
77814;SDS011;67002;52.124;21.210;2023-10-09T09:23:55;0.20;;;0.20;;
77814;SDS011;67002;52.124;21.210;2023-10-09T09:26:34;0.10;;;0.10;;
77814;SDS011;67002;52.124;21.210;2023-10-09T09:29:11;0.10;;;0.10;;
77814;SDS011;67002;52.124;21.210;2023-10-09T09:31:54;0.00;;;0.00;;
77814;SDS011;67002;52.124;21.210;2023-10-09T09:34:24;0.00;;;0.00;;
77814;SDS011;67002;52.124;21.210;2023-10-09T09:36:56;0.00;;;0.00;;
77814;SDS011;67002;52.124;21.210;2023-10-09T09:39:25;0.00;;;0.00;;
77814;SDS011;67002;52.124;21.210;2023-10-09T09:42:08;0.00;;;0.00;;
77814;SDS011;67002;52.124;21.210;2023-10-09T09:44:40;0.00;;;0.00;;
77814;SDS011;67002;52.124;21.210;2023-10-09T09:47:12;0.00;;;0.00;;
77814;SDS011;67002;52.124;21.210;2023-10-09T09:49:41;0.00;;;0.00;;
77814;SDS011;67002;52.124;21.210;2023-10-09T09:52:10;0.10;;;0.10;;
77814;SDS011;67002;52.124;21.210;2023-10-09T09:57:07;0.00;;;0.00;;
77814;SDS011;67002;52.124;21.210;2023-10-09T09:59:40;0.00;;;0.00;;
77814;SDS011;67002;52.124;21.210;2023-10-09T10:02:18;0.10;;;0.10;;
77814;SDS011;67002;52.124;21.210;2023-10-09T10:04:50;0.20;;;0.20;;
77814;SDS011;67002;52.124;21.210;2023-10-09T10:07:21;0.00;;;0.00;;
77814;SDS011;67002;52.124;21.210;2023-10-09T10:09:52;0.00;;;0.00;;
77814;SDS011;67002;52.124;21.210;2023-10-09T10:18:30;0.00;;;0.00;;
77814;SDS011;67002;52.124;21.210;2023-10-09T10:21:10;0.00;;;0.00;;
77814;SDS011;67002;52.124;21.210;2023-10-09T10:23:43;0.00;;;0.00;;
77814;SDS011;67002;52.124;21.210;2023-10-09T10:26:18;0.00;;;0.00;;
77814;SDS011;67002;52.124;21.210;2023-10-09T10:31:52;0.00;;;0.00;;
77814;SDS011;67002;52.124;21.210;2023-10-09T10:34:23;0.00;;;0.00;;
77814;SDS011;67002;52.124;21.210;2023-10-09T10:36:51;0.00;;;0.00;;
77814;SDS011;67002;52.124;21.210;2023-10-09T10:39:26;0.00;;;0.00;;
77814;SDS011;67002;52.124;21.210;2023-10-09T10:42:09;0.00;;;0.00;;
77814;SDS011;67002;52.124;21.210;2023-10-09T10:44:57;0.00;;;0.00;;
77814;SDS011;67002;52.124;21.210;2023-10-09T10:47:29;0.00;;;0.00;;
77814;SDS011;67002;52.124;21.210;2023-10-09T10:50:02;0.00;;;0.00;;
77814;SDS011;67002;52.124;21.210;2023-10-09T10:53:11;0.00;;;0.00;;
77814;SDS011;67002;52.124;21.210;2023-10-09T10:55:54;0.00;;;0.00;;
77814;SDS011;67002;52.124;21.210;2023-10-09T10:58:24;0.00;;;0.00;;
77814;SDS011;67002;52.124;21.210;2023-10-09T11:01:02;0.00;;;0.00;;
77814;SDS011;67002;52.124;21.210;2023-10-09T11:06:26;0.00;;;0.00;;
77814;SDS011;67002;52.124;21.210;2023-10-09T11:09:04;0.00;;;0.00;;
77814;SDS011;67002;52.124;21.210;2023-10-09T11:11:37;0.00;;;0.00;;
77814;SDS011;67002;52.124;21.210;2023-10-09T11:14:13;0.00;;;0.00;;
77814;SDS011;67002;52.124;21.210;2023-10-09T11:16:43;0.00;;;0.00;;
77814;SDS011;67002;52.124;21.210;2023-10-09T11:19:19;0.00;;;0.00;;
77814;SDS011;67002;52.124;21.210;2023-10-09T11:21:58;0.00;;;0.00;;
77814;SDS011;67002;52.124;21.210;2023-10-09T11:24:41;0.00;;;0.00;;
77814;SDS011;67002;52.124;21.210;2023-10-09T11:27:10;0.10;;;0.10;;
77814;SDS011;67002;52.124;21.210;2023-10-09T11:29:48;0.00;;;0.00;;
77814;SDS011;67002;52.124;21.210;2023-10-09T11:35:12;0.10;;;0.10;;
77814;SDS011;67002;52.124;21.210;2023-10-09T11:37:55;0.10;;;0.10;;
77814;SDS011;67002;52.124;21.210;2023-10-09T11:40:30;0.00;;;0.00;;
77814;SDS011;67002;52.124;21.210;2023-10-09T11:43:16;0.00;;;0.00;;
77814;SDS011;67002;52.124;21.210;2023-10-09T11:45:52;0.10;;;0.10;;
77814;SDS011;67002;52.124;21.210;2023-10-09T11:51:00;0.10;;;0.10;;
77814;SDS011;67002;52.124;21.210;2023-10-09T11:53:43;0.00;;;0.00;;
77814;SDS011;67002;52.124;21.210;2023-10-09T11:56:17;0.10;;;0.10;;
77814;SDS011;67002;52.124;21.210;2023-10-09T11:58:47;0.00;;;0.00;;
77814;SDS011;67002;52.124;21.210;2023-10-09T12:01:17;0.00;;;0.00;;
77814;SDS011;67002;52.124;21.210;2023-10-09T12:03:47;0.00;;;0.00;;
77814;SDS011;67002;52.124;21.210;2023-10-09T12:06:17;0.00;;;0.00;;
77814;SDS011;67002;52.124;21.210;2023-10-09T12:08:49;0.00;;;0.00;;
77814;SDS011;67002;52.124;21.210;2023-10-09T12:11:17;0.00;;;0.00;;
77814;SDS011;67002;52.124;21.210;2023-10-09T12:13:51;0.00;;;0.00;;
77814;SDS011;67002;52.124;21.210;2023-10-09T12:16:23;0.00;;;0.00;;
77814;SDS011;67002;52.124;21.210;2023-10-09T12:18:54;0.00;;;0.00;;
77814;SDS011;67002;52.124;21.210;2023-10-09T12:21:23;0.00;;;0.00;;
77814;SDS011;67002;52.124;21.210;2023-10-09T12:23:54;0.00;;;0.00;;
77814;SDS011;67002;52.124;21.210;2023-10-09T12:26:27;0.00;;;0.00;;
77814;SDS011;67002;52.124;21.210;2023-10-09T12:31:29;0.00;;;0.00;;
77814;SDS011;67002;52.124;21.210;2023-10-09T12:34:00;0.10;;;0.10;;
77814;SDS011;67002;52.124;21.210;2023-10-09T12:36:29;0.00;;;0.00;;
77814;SDS011;67002;52.124;21.210;2023-10-09T12:39:04;0.00;;;0.00;;
77814;SDS011;67002;52.124;21.210;2023-10-09T12:41:32;0.00;;;0.00;;
77814;SDS011;67002;52.124;21.210;2023-10-09T12:44:02;0.00;;;0.00;;
77814;SDS011;67002;52.124;21.210;2023-10-09T12:46:31;0.10;;;0.10;;
77814;SDS011;67002;52.124;21.210;2023-10-09T12:49:04;0.00;;;0.00;;
77814;SDS011;67002;52.124;21.210;2023-10-09T12:51:33;0.00;;;0.00;;
77814;SDS011;67002;52.124;21.210;2023-10-09T12:54:01;0.00;;;0.00;;
77814;SDS011;67002;52.124;21.210;2023-10-09T12:56:30;0.00;;;0.00;;
77814;SDS011;67002;52.124;21.210;2023-10-09T12:59:04;0.10;;;0.10;;
77814;SDS011;67002;52.124;21.210;2023-10-09T13:01:34;0.00;;;0.00;;
77814;SDS011;67002;52.124;21.210;2023-10-09T13:04:10;0.00;;;0.00;;
77814;SDS011;67002;52.124;21.210;2023-10-09T13:06:38;0.00;;;0.00;;
77814;SDS011;67002;52.124;21.210;2023-10-09T13:09:10;0.00;;;0.00;;
77814;SDS011;67002;52.124;21.210;2023-10-09T13:11:40;0.00;;;0.00;;
77814;SDS011;67002;52.124;21.210;2023-10-09T13:14:09;0.00;;;0.00;;
77814;SDS011;67002;52.124;21.210;2023-10-09T13:16:44;0.10;;;0.10;;
77814;SDS011;67002;52.124;21.210;2023-10-09T13:19:14;0.00;;;0.00;;
77814;SDS011;67002;52.124;21.210;2023-10-09T13:21:42;0.00;;;0.00;;
77814;SDS011;67002;52.124;21.210;2023-10-09T13:24:11;0.00;;;0.00;;
77814;SDS011;67002;52.124;21.210;2023-10-09T13:26:40;0.00;;;0.00;;
77814;SDS011;67002;52.124;21.210;2023-10-09T13:29:12;0.10;;;0.10;;
77814;SDS011;67002;52.124;21.210;2023-10-09T13:31:44;0.00;;;0.00;;
77814;SDS011;67002;52.124;21.210;2023-10-09T13:34:14;0.00;;;0.00;;
77814;SDS011;67002;52.124;21.210;2023-10-09T13:36:43;0.00;;;0.00;;
77814;SDS011;67002;52.124;21.210;2023-10-09T13:39:17;0.10;;;0.10;;
77814;SDS011;67002;52.124;21.210;2023-10-09T13:41:51;0.00;;;0.00;;
77814;SDS011;67002;52.124;21.210;2023-10-09T13:44:25;0.10;;;0.10;;
77814;SDS011;67002;52.124;21.210;2023-10-09T13:46:54;0.10;;;0.10;;
77814;SDS011;67002;52.124;21.210;2023-10-09T13:49:23;0.10;;;0.10;;
77814;SDS011;67002;52.124;21.210;2023-10-09T13:51:57;0.00;;;0.00;;
77814;SDS011;67002;52.124;21.210;2023-10-09T13:54:26;0.00;;;0.00;;
77814;SDS011;67002;52.124;21.210;2023-10-09T13:57:06;0.00;;;0.00;;
77814;SDS011;67002;52.124;21.210;2023-10-09T13:59:37;0.00;;;0.00;;
77814;SDS011;67002;52.124;21.210;2023-10-09T14:02:10;0.10;;;0.10;;
77814;SDS011;67002;52.124;21.210;2023-10-09T14:04:44;0.10;;;0.10;;
77814;SDS011;67002;52.124;21.210;2023-10-09T14:07:13;0.10;;;0.10;;
77814;SDS011;67002;52.124;21.210;2023-10-09T14:09:44;0.10;;;0.10;;
77814;SDS011;67002;52.124;21.210;2023-10-09T14:12:22;0.10;;;0.10;;
77814;SDS011;67002;52.124;21.210;2023-10-09T14:14:51;0.10;;;0.10;;
77814;SDS011;67002;52.124;21.210;2023-10-09T14:17:21;0.10;;;0.10;;
77814;SDS011;67002;52.124;21.210;2023-10-09T14:19:55;0.10;;;0.10;;
77814;SDS011;67002;52.124;21.210;2023-10-09T14:22:45;0.00;;;0.00;;
77814;SDS011;67002;52.124;21.210;2023-10-09T14:25:19;0.10;;;0.10;;
77814;SDS011;67002;52.124;21.210;2023-10-09T14:27:48;0.10;;;0.10;;
77814;SDS011;67002;52.124;21.210;2023-10-09T14:30:19;0.20;;;0.20;;
77814;SDS011;67002;52.124;21.210;2023-10-09T14:32:57;0.10;;;0.10;;
77814;SDS011;67002;52.124;21.210;2023-10-09T14:35:28;0.00;;;0.00;;
77814;SDS011;67002;52.124;21.210;2023-10-09T14:37:57;0.00;;;0.00;;
77814;SDS011;67002;52.124;21.210;2023-10-09T14:40:28;0.10;;;0.10;;
77814;SDS011;67002;52.124;21.210;2023-10-09T14:42:58;0.20;;;0.20;;
77814;SDS011;67002;52.124;21.210;2023-10-09T14:45:27;0.10;;;0.10;;
77814;SDS011;67002;52.124;21.210;2023-10-09T14:47:55;0.00;;;0.00;;
77814;SDS011;67002;52.124;21.210;2023-10-09T14:50:26;0.10;;;0.10;;
77814;SDS011;67002;52.124;21.210;2023-10-09T14:52:55;0.20;;;0.20;;
77814;SDS011;67002;52.124;21.210;2023-10-09T14:55:28;0.10;;;0.10;;
77814;SDS011;67002;52.124;21.210;2023-10-09T14:57:58;0.20;;;0.20;;
77814;SDS011;67002;52.124;21.210;2023-10-09T15:00:27;0.10;;;0.10;;
77814;SDS011;67002;52.124;21.210;2023-10-09T15:03:00;0.10;;;0.10;;
77814;SDS011;67002;52.124;21.210;2023-10-09T15:05:31;0.20;;;0.20;;
77814;SDS011;67002;52.124;21.210;2023-10-09T15:08:02;0.20;;;0.20;;
77814;SDS011;67002;52.124;21.210;2023-10-09T15:10:31;0.00;;;0.00;;
77814;SDS011;67002;52.124;21.210;2023-10-09T15:12:59;0.10;;;0.10;;
77814;SDS011;67002;52.124;21.210;2023-10-09T15:15:27;0.20;;;0.20;;
77814;SDS011;67002;52.124;21.210;2023-10-09T15:17:57;0.10;;;0.10;;
77814;SDS011;67002;52.124;21.210;2023-10-09T15:22:53;0.10;;;0.10;;
77814;SDS011;67002;52.124;21.210;2023-10-09T15:27:49;0.20;;;0.20;;
77814;SDS011;67002;52.124;21.210;2023-10-09T15:30:18;0.20;;;0.20;;
77814;SDS011;67002;52.124;21.210;2023-10-09T15:32:46;0.10;;;0.10;;
77814;SDS011;67002;52.124;21.210;2023-10-09T15:35:16;0.30;;;0.30;;
77814;SDS011;67002;52.124;21.210;2023-10-09T15:37:45;0.30;;;0.30;;
77814;SDS011;67002;52.124;21.210;2023-10-09T15:40:14;0.20;;;0.20;;
77814;SDS011;67002;52.124;21.210;2023-10-09T15:42:45;0.10;;;0.10;;
77814;SDS011;67002;52.124;21.210;2023-10-09T15:45:16;0.30;;;0.30;;
77814;SDS011;67002;52.124;21.210;2023-10-09T15:47:46;0.10;;;0.10;;
77814;SDS011;67002;52.124;21.210;2023-10-09T15:50:15;0.10;;;0.10;;
77814;SDS011;67002;52.124;21.210;2023-10-09T15:52:43;0.20;;;0.20;;
77814;SDS011;67002;52.124;21.210;2023-10-09T15:55:14;0.30;;;0.30;;
77814;SDS011;67002;52.124;21.210;2023-10-09T15:57:47;0.20;;;0.20;;
77814;SDS011;67002;52.124;21.210;2023-10-09T16:00:15;0.20;;;0.20;;
77814;SDS011;67002;52.124;21.210;2023-10-09T16:02:45;0.40;;;0.40;;
77814;SDS011;67002;52.124;21.210;2023-10-09T16:05:14;0.30;;;0.30;;